Hartford, Connecticut
Current Conditions -  °F | °C
As of 5:53 PM on Thursday 23 Oct 2014 (Local Time) from KHFD Reporting Station
Light Rain Light Rain  
Wind Chill: 53°   Ceiling: 1900
Heat Index: 53°   Visibility: 10mi
Dew Point: 47°   Wind: 12mph
Humidity: 80%   Direction: 360°N
Pressure: 29.67"   Gusts: 21mph
Location:  41.76°N, 72.67°W
Report Text: KHFD 232153Z 36010G18KT 290V020 10SM -RA OVC019 12/08 A2967 RMK AO2 RAB20 SLP047 P0000 T01170083
Loading
Personal Weather Stations






























Interactive Weather Map
Tropical Storm Tracking
New forecast layout! Learn more

10-Day Weather Forecast

Advertisements
Track Severe Weather on mobile